Time;durP1;ratioP1;P1;durP2;ratioP2;P2;SDS_P1;SDS_P2;PMS_P1;PMS_P2;Temp;Humidity;BMP_temperature;BMP_pressure;BME280_temperature;BME280_humidity;BME280_pressure;Samples;Min_cycle;Max_cycle;Signal;HPM_P1;HPM_P2
2022/12/11 00:01:27;;;;;;;56.65;22.48;;;-0.10;99.90;;;;;;5103978;28;20074;-80
2022/12/11 00:03:53;;;;;;;63.17;23.38;;;-0.10;99.90;;;;;;5094319;28;20048;-80
2022/12/11 00:06:21;;;;;;;64.15;23.25;;;-0.10;99.90;;;;;;5092175;28;20762;-80
2022/12/11 00:08:52;;;;;;;51.03;21.00;;;-0.10;99.90;;;;;;5095210;28;20425;-79
2022/12/11 00:11:19;;;;;;;51.17;21.00;;;-0.10;99.90;;;;;;5094050;28;20051;-81
2022/12/11 00:13:45;;;;;;;66.93;22.80;;;-0.10;99.90;;;;;;5088668;28;20493;-80
2022/12/11 00:16:11;;;;;;;59.92;22.30;;;-0.10;99.90;;;;;;5092761;28;20047;-81
2022/12/11 00:18:37;;;;;;;56.28;21.48;;;-0.10;99.90;;;;;;5075929;28;20046;-80
2022/12/11 00:21:06;;;;;;;57.22;21.65;;;-0.10;99.90;;;;;;5092561;28;20043;-80
2022/12/11 00:23:34;;;;;;;52.83;21.10;;;-0.10;99.90;;;;;;5094255;28;20080;-80
2022/12/11 00:26:05;;;;;;;56.22;21.63;;;-0.10;99.90;;;;;;5091157;28;20487;-80
2022/12/11 00:28:32;;;;;;;49.92;20.90;;;-0.10;99.90;;;;;;5091192;28;20068;-81
2022/12/11 00:30:58;;;;;;;53.63;20.52;;;-0.10;99.90;;;;;;5090490;28;20032;-82
2022/12/11 00:33:26;;;;;;;56.85;20.77;;;-0.10;99.90;;;;;;5073161;28;20043;-80
2022/12/11 00:35:51;;;;;;;;;;;-0.10;99.90;;;;;;5094866;28;20036;-80
2022/12/11 00:38:20;;;;;;;52.75;19.38;;;-0.10;99.90;;;;;;5091434;28;19920;-79
2022/12/11 00:40:47;;;;;;;50.60;19.02;;;-0.10;99.90;;;;;;5058332;28;20560;-80
2022/12/11 00:43:13;;;;;;;52.42;20.65;;;0.00;99.90;;;;;;5086915;28;20043;-79
2022/12/11 00:45:41;;;;;;;57.05;20.67;;;0.00;99.90;;;;;;5072132;28;20076;-79
2022/12/11 00:48:07;;;;;;;57.40;20.77;;;0.00;99.90;;;;;;5075523;28;20048;-79
2022/12/11 00:50:33;;;;;;;56.70;20.83;;;0.00;99.90;;;;;;5079818;28;20041;-78
2022/12/11 00:52:59;;;;;;;60.50;21.85;;;0.00;99.90;;;;;;5096125;28;20051;-79
2022/12/11 00:55:27;;;;;;;56.53;21.60;;;-0.10;99.90;;;;;;5100628;28;20459;-79
2022/12/11 00:57:53;;;;;;;52.30;20.58;;;-0.10;99.90;;;;;;5102114;28;20076;-80
2022/12/11 01:00:19;;;;;;;56.60;19.77;;;0.00;99.90;;;;;;5102916;28;20063;-79
2022/12/11 01:02:44;;;;;;;57.90;21.17;;;0.00;99.90;;;;;;5072931;28;20052;-80
2022/12/11 01:05:11;;;;;;;53.38;19.85;;;;;;;;;;5076207;28;20040;-79
2022/12/11 01:07:36;;;;;;;56.40;22.10;;;0.00;99.90;;;;;;5075887;28;20040;-80
2022/12/11 01:12:48;;;;;;;54.20;20.40;;;0.00;99.90;;;;;;5091776;28;20045;-79
2022/12/11 01:15:13;;;;;;;59.55;21.90;;;0.00;99.90;;;;;;5090494;28;20040;-80
2022/12/11 01:17:39;;;;;;;56.75;20.77;;;0.00;99.90;;;;;;5055210;28;20040;-81
2022/12/11 01:20:06;;;;;;;58.83;22.20;;;0.00;99.90;;;;;;5101658;28;20040;-82
2022/12/11 01:22:34;;;;;;;50.63;20.63;;;0.00;99.90;;;;;;5066328;28;20070;-82
2022/12/11 01:25:00;;;;;;;;;;;0.10;99.90;;;;;;5104005;28;20043;-82
2022/12/11 01:27:25;;;;;;;58.10;20.83;;;0.10;99.90;;;;;;5100816;28;19920;-83
2022/12/11 01:29:51;;;;;;;60.25;22.23;;;0.10;99.90;;;;;;5098726;28;20366;-82
2022/12/11 01:32:17;;;;;;;46.47;18.83;;;0.10;99.90;;;;;;5105068;28;20065;-82
2022/12/11 01:34:43;;;;;;;54.15;20.90;;;0.10;99.90;;;;;;5104295;28;20059;-82
2022/12/11 01:37:08;;;;;;;61.00;22.50;;;0.10;99.90;;;;;;5099410;28;20036;-83
2022/12/11 01:39:37;;;;;;;55.05;20.65;;;0.10;99.90;;;;;;5100902;28;20039;-82
2022/12/11 01:42:03;;;;;;;55.40;20.17;;;0.10;99.90;;;;;;5104063;28;20048;-82
2022/12/11 01:44:28;;;;;;;45.85;19.65;;;0.10;99.90;;;;;;5077098;28;20527;-81
2022/12/11 01:46:54;;;;;;;56.00;19.77;;;0.10;99.90;;;;;;5100624;28;20104;-81
2022/12/11 01:49:24;;;;;;;52.42;19.98;;;0.10;99.90;;;;;;5081416;28;20048;-81
2022/12/11 01:52:00;;;;;;;52.45;20.60;;;0.10;99.90;;;;;;5103175;28;20052;-82
2022/12/11 01:54:28;;;;;;;47.90;19.08;;;0.10;99.90;;;;;;5100584;28;20047;-82
2022/12/11 01:56:56;;;;;;;52.63;19.05;;;0.10;99.90;;;;;;5098967;28;20132;-81
2022/12/11 01:59:26;;;;;;;59.35;20.67;;;0.10;99.90;;;;;;5091232;28;20067;-81
2022/12/11 02:01:59;;;;;;;59.13;20.52;;;0.10;99.90;;;;;;5097785;28;20067;-81
2022/12/11 02:04:26;;;;;;;52.25;20.42;;;0.10;99.90;;;;;;5109555;28;20055;-82
2022/12/11 02:06:53;;;;;;;51.30;19.97;;;0.20;99.90;;;;;;5091150;28;20060;-82
2022/12/11 02:09:34;;;;;;;52.15;19.98;;;0.10;99.90;;;;;;5073344;28;20108;-81
2022/12/11 02:12:10;;;;;;;54.95;20.33;;;0.20;99.90;;;;;;5093210;28;20119;-82
2022/12/11 02:14:45;;;;;;;51.00;20.05;;;0.20;99.90;;;;;;5090444;28;20054;-82
2022/12/11 02:17:24;;;;;;;53.97;20.10;;;0.20;99.90;;;;;;5091860;28;20051;-82
2022/12/11 02:20:21;;;;;;;49.97;19.88;;;0.10;99.90;;;;;;5069131;28;20052;-82
2022/12/11 02:23:06;;;;;;;49.95;19.17;;;0.20;99.90;;;;;;5069582;28;20040;-82
2022/12/11 02:25:51;;;;;;;52.40;19.23;;;0.30;99.90;;;;;;5087915;28;20614;-82
2022/12/11 02:28:22;;;;;;;52.88;18.90;;;0.20;99.90;;;;;;5099545;28;20078;-82
2022/12/11 02:30:57;;;;;;;56.80;20.63;;;0.20;99.90;;;;;;5081251;28;20066;-81
2022/12/11 02:33:33;;;;;;;53.33;19.25;;;0.20;99.90;;;;;;5096562;28;20044;-80
2022/12/11 02:36:00;;;;;;;60.80;19.95;;;0.20;99.90;;;;;;5093700;28;20123;-80
2022/12/11 02:38:34;;;;;;;60.53;22.67;;;0.30;99.90;;;;;;5094584;28;20051;-81
2022/12/11 02:41:03;;;;;;;72.93;21.77;;;0.20;99.90;;;;;;5094252;28;20052;-80
2022/12/11 02:43:31;;;;;;;65.55;21.85;;;0.20;99.90;;;;;;5092554;28;20032;-80
2022/12/11 02:45:58;;;;;;;68.47;23.70;;;0.20;99.90;;;;;;5091965;28;20468;-79
2022/12/11 02:48:24;;;;;;;64.93;21.85;;;0.30;99.90;;;;;;5077174;28;20040;-81
2022/12/11 02:50:54;;;;;;;68.82;23.92;;;0.30;99.90;;;;;;5080144;28;20515;-82
2022/12/11 02:53:24;;;;;;;66.78;23.70;;;0.20;99.90;;;;;;5085830;28;20099;-81
2022/12/11 02:55:55;;;;;;;63.83;22.92;;;0.30;99.90;;;;;;5103734;28;20040;-80
2022/12/11 02:58:26;;;;;;;65.07;22.17;;;0.30;99.90;;;;;;5100395;28;20044;-80
2022/12/11 03:00:52;;;;;;;58.72;22.50;;;0.20;99.90;;;;;;5103147;28;20064;-81
2022/12/11 03:03:18;;;;;;;63.67;22.00;;;0.30;99.90;;;;;;5095669;28;20044;-81
2022/12/11 03:05:45;;;;;;;66.07;23.70;;;0.30;99.90;;;;;;5079164;28;20129;-81
2022/12/11 03:08:11;;;;;;;68.47;22.33;;;0.30;99.90;;;;;;5078867;28;20047;-81
2022/12/11 03:10:37;;;;;;;68.82;24.20;;;0.30;99.90;;;;;;5056960;28;20650;-81
2022/12/11 03:13:03;;;;;;;65.72;23.13;;;0.30;99.90;;;;;;5088876;28;20032;-81
2022/12/11 03:15:45;;;;;;;75.65;24.48;;;0.30;99.90;;;;;;5091631;28;20055;-81
2022/12/11 03:18:35;;;;;;;71.30;22.83;;;0.30;99.90;;;;;;5089227;28;20509;-81
2022/12/11 03:21:13;;;;;;;68.32;23.77;;;0.40;99.90;;;;;;5092615;28;20067;-80
2022/12/11 03:24:04;;;;;;;66.80;23.77;;;0.30;99.90;;;;;;5084758;28;20032;-80
2022/12/11 03:26:34;;;;;;;67.28;23.70;;;0.30;99.90;;;;;;5087250;28;20060;-80
2022/12/11 03:29:07;;;;;;;72.13;23.52;;;0.30;99.90;;;;;;5092274;28;20101;-79
2022/12/11 03:31:42;;;;;;;72.47;25.67;;;0.30;99.90;;;;;;5091133;28;20115;-79
2022/12/11 03:34:20;;;;;;;75.53;26.33;;;0.30;99.90;;;;;;5089664;28;21747;-79
2022/12/11 03:36:46;;;;;;;;;;;0.30;99.90;;;;;;5081402;28;20485;-79
2022/12/11 03:39:21;;;;;;;65.00;24.75;;;0.30;99.90;;;;;;5088614;28;19920;-79
2022/12/11 03:41:49;;;;;;;74.25;23.13;;;0.30;99.90;;;;;;5069766;28;20127;-79
2022/12/11 03:44:17;;;;;;;68.75;23.25;;;0.40;99.90;;;;;;5086215;28;20048;-79
2022/12/11 03:46:45;;;;;;;69.28;24.05;;;0.30;99.90;;;;;;5069153;28;20094;-79
2022/12/11 03:49:22;;;;;;;71.68;25.38;;;0.30;99.90;;;;;;5070267;28;20055;-79
2022/12/11 03:51:50;;;;;;;67.18;24.02;;;0.30;99.90;;;;;;5085106;28;20402;-78
2022/12/11 03:54:16;;;;;;;68.93;24.20;;;0.30;99.90;;;;;;5089374;28;20043;-78
2022/12/11 03:56:44;;;;;;;66.25;24.17;;;0.30;99.90;;;;;;5068742;28;20036;-78
2022/12/11 03:59:10;;;;;;;75.22;26.10;;;0.30;99.90;;;;;;5093589;28;20048;-78
2022/12/11 04:01:37;;;;;;;76.85;26.00;;;0.30;99.90;;;;;;5072347;28;20060;-78
2022/12/11 04:04:02;;;;;;;70.78;24.65;;;0.40;99.90;;;;;;5096699;28;20148;-78
2022/12/11 04:06:28;;;;;;;72.97;25.77;;;0.40;99.90;;;;;;5091390;28;20044;-79
2022/12/11 04:08:54;;;;;;;75.45;24.95;;;0.40;99.90;;;;;;5088835;28;20040;-78
2022/12/11 04:11:35;;;;;;;66.57;25.75;;;0.40;99.90;;;;;;5088555;28;20051;-78
2022/12/11 04:16:52;;;;;;;71.55;25.70;;;0.40;99.90;;;;;;5087827;28;20036;-78
2022/12/11 04:25:03;;;;;;;58.95;21.67;;;0.40;99.90;;;;;;5004400;28;20061;-78
2022/12/11 04:30:24;;;;;;;63.30;23.88;;;0.40;99.90;;;;;;4998606;28;20041;-79
2022/12/11 04:32:50;;;;;;;68.28;24.23;;;0.40;99.90;;;;;;5004604;28;20100;-79
2022/12/11 04:35:16;;;;;;;68.22;25.55;;;0.40;99.90;;;;;;5003648;28;20100;-79
2022/12/11 04:37:42;;;;;;;67.18;24.20;;;0.40;99.90;;;;;;5006844;28;20046;-79
2022/12/11 04:40:11;;;;;;;71.55;25.27;;;0.40;99.90;;;;;;5004704;28;20048;-79
2022/12/11 04:42:37;;;;;;;67.45;25.65;;;0.40;99.90;;;;;;5008127;28;20046;-79
2022/12/11 04:45:04;;;;;;;66.55;25.35;;;;;;;;;;4995817;28;20046;-79
2022/12/11 04:47:29;;;;;;;69.15;25.35;;;0.40;99.90;;;;;;4991866;28;20360;-79
2022/12/11 04:49:55;;;;;;;65.55;24.92;;;0.40;99.90;;;;;;5005376;28;20042;-79
2022/12/11 04:52:21;;;;;;;59.55;23.38;;;0.50;99.90;;;;;;5005606;28;20038;-79
2022/12/11 04:54:46;;;;;;;56.70;22.23;;;0.50;99.90;;;;;;4986089;28;20086;-79
2022/12/11 04:57:12;;;;;;;64.70;25.98;;;0.40;99.90;;;;;;5006604;28;20598;-79
2022/12/11 04:59:38;;;;;;;58.80;24.08;;;0.40;99.90;;;;;;5007584;28;20046;-78
2022/12/11 05:02:04;;;;;;;58.63;22.63;;;0.40;99.90;;;;;;5067318;28;20466;-79
2022/12/11 05:04:31;;;;;;;63.00;22.45;;;0.40;99.90;;;;;;5105066;28;20080;-78
2022/12/11 05:06:58;;;;;;;58.97;22.70;;;0.40;99.90;;;;;;5056343;28;20044;-79
2022/12/11 05:09:25;;;;;;;60.17;23.38;;;0.50;99.90;;;;;;5069637;28;20481;-79
2022/12/11 05:11:51;;;;;;;55.10;21.25;;;0.50;99.90;;;;;;5087721;28;20039;-78
2022/12/11 05:14:17;;;;;;;59.65;21.48;;;0.50;99.90;;;;;;5090586;28;20055;-78
2022/12/11 05:16:42;;;;;;;51.83;20.80;;;0.40;99.90;;;;;;5083888;28;20032;-78
2022/12/11 05:19:09;;;;;;;48.63;20.73;;;0.50;99.90;;;;;;5088666;28;20041;-78
2022/12/11 05:21:35;;;;;;;51.22;19.77;;;0.40;99.90;;;;;;5089598;28;20040;-79
2022/12/11 05:24:00;;;;;;;47.08;19.63;;;0.40;99.90;;;;;;5048909;28;20051;-79
2022/12/11 05:26:26;;;;;;;43.03;17.75;;;0.50;99.90;;;;;;5082434;28;20051;-79
2022/12/11 05:28:53;;;;;;;51.33;18.88;;;0.50;99.90;;;;;;5064972;28;20040;-79
2022/12/11 05:31:21;;;;;;;48.17;19.88;;;0.40;99.90;;;;;;5083355;28;20103;-79
2022/12/11 05:33:49;;;;;;;59.40;22.50;;;0.50;99.90;;;;;;5091945;28;20090;-79
2022/12/11 05:36:29;;;;;;;54.88;22.83;;;0.50;99.90;;;;;;5097342;28;20040;-80
2022/12/11 05:38:57;;;;;;;63.20;22.65;;;0.50;99.90;;;;;;5086306;28;20080;-79
2022/12/11 05:41:24;;;;;;;66.22;25.50;;;0.50;99.90;;;;;;5108649;28;20055;-80
2022/12/11 05:43:50;;;;;;;63.85;22.70;;;0.60;99.90;;;;;;5092508;28;20032;-80
2022/12/11 05:46:19;;;;;;;67.78;24.45;;;0.40;99.90;;;;;;5083669;28;20123;-80
2022/12/11 05:48:48;;;;;;;64.93;23.38;;;0.40;99.90;;;;;;5085558;28;20143;-80
2022/12/11 05:51:14;;;;;;;;;;;0.40;99.90;;;;;;5064655;28;20048;-80
2022/12/11 05:53:41;;;;;;;67.93;23.42;;;0.50;99.90;;;;;;5069139;28;20361;-81
2022/12/11 05:56:11;;;;;;;66.95;24.48;;;0.50;99.90;;;;;;5091125;28;21004;-81
2022/12/11 05:58:37;;;;;;;65.65;24.08;;;0.40;99.90;;;;;;5106606;28;20052;-81
2022/12/11 06:01:07;;;;;;;69.60;24.30;;;0.50;99.90;;;;;;5095833;28;20048;-80
2022/12/11 06:03:33;;;;;;;58.22;22.60;;;0.40;99.90;;;;;;5088955;28;20052;-81
2022/12/11 06:06:03;;;;;;;65.80;23.38;;;0.50;99.90;;;;;;5093963;28;20044;-81
2022/12/11 06:08:29;;;;;;;60.72;24.85;;;0.50;99.90;;;;;;5068779;28;20124;-80
2022/12/11 06:10:55;;;;;;;57.30;21.67;;;0.50;99.90;;;;;;5090302;28;20043;-81
2022/12/11 06:13:20;;;;;;;57.58;24.75;;;0.50;99.90;;;;;;5074178;28;20059;-82
2022/12/11 06:15:46;;;;;;;60.38;21.88;;;0.50;99.90;;;;;;5087962;28;20481;-82
2022/12/11 06:18:12;;;;;;;58.80;22.08;;;0.40;99.90;;;;;;5084975;28;20036;-82
2022/12/11 06:20:38;;;;;;;66.85;23.17;;;0.50;99.90;;;;;;5065696;28;20036;-82
2022/12/11 06:23:03;;;;;;;62.03;22.73;;;0.50;99.90;;;;;;5084577;28;20099;-82
2022/12/11 06:25:30;;;;;;;56.47;21.98;;;0.50;99.90;;;;;;5091551;28;20119;-83
2022/12/11 06:27:55;;;;;;;60.75;21.23;;;0.50;99.90;;;;;;5072091;28;20090;-82
2022/12/11 06:30:21;;;;;;;59.97;22.08;;;0.40;99.90;;;;;;5085981;28;20105;-83
2022/12/11 06:32:47;;;;;;;56.03;22.23;;;0.50;99.90;;;;;;5082749;28;20040;-82
2022/12/11 06:35:13;;;;;;;70.07;24.50;;;0.50;99.90;;;;;;5088057;28;20050;-82
2022/12/11 06:37:39;;;;;;;63.97;25.05;;;0.50;99.90;;;;;;5107546;28;20072;-81
2022/12/11 06:40:06;;;;;;;64.97;27.02;;;0.40;99.90;;;;;;5089702;28;20048;-81
2022/12/11 06:42:31;;;;;;;60.55;25.38;;;0.50;99.90;;;;;;5084910;28;20091;-81
2022/12/11 06:44:58;;;;;;;68.40;25.08;;;0.50;99.90;;;;;;5065133;28;20127;-81
2022/12/11 06:47:31;;;;;;;58.85;23.95;;;0.50;99.90;;;;;;5087447;28;20039;-81
2022/12/11 06:49:58;;;;;;;64.82;27.20;;;0.50;99.90;;;;;;5082134;28;20123;-81
2022/12/11 06:52:28;;;;;;;62.10;23.42;;;0.40;99.90;;;;;;5087219;28;20524;-81
2022/12/11 06:54:54;;;;;;;63.10;22.27;;;0.40;99.90;;;;;;5082574;28;20043;-80
2022/12/11 06:57:20;;;;;;;60.72;24.30;;;0.50;99.90;;;;;;5071069;28;20397;-80
2022/12/11 06:59:45;;;;;;;60.85;23.10;;;0.40;99.90;;;;;;5073304;28;20040;-82
2022/12/11 07:02:13;;;;;;;62.67;22.90;;;0.40;99.90;;;;;;5105176;28;20052;-82
2022/12/11 07:04:39;;;;;;;56.55;21.98;;;0.40;99.90;;;;;;5073129;28;20467;-79
2022/12/11 07:07:05;;;;;;;60.13;21.52;;;0.50;99.90;;;;;;5089404;28;20095;-79
2022/12/11 07:09:31;;;;;;;54.67;21.48;;;0.50;99.90;;;;;;5070682;28;20449;-79
2022/12/11 07:11:57;;;;;;;56.95;21.40;;;0.50;99.90;;;;;;5088563;28;20135;-80
2022/12/11 07:14:22;;;;;;;58.67;21.45;;;0.50;99.90;;;;;;5086435;28;20476;-79
2022/12/11 07:16:48;;;;;;;52.80;21.33;;;0.50;99.90;;;;;;5088254;28;20382;-79
2022/12/11 07:19:14;;;;;;;55.10;21.50;;;0.50;99.90;;;;;;5084292;28;20043;-79
2022/12/11 07:21:39;;;;;;;56.35;21.25;;;0.50;99.90;;;;;;5062193;28;20052;-79
2022/12/11 07:24:05;;;;;;;58.90;21.92;;;0.50;99.90;;;;;;5081943;28;20086;-79
2022/12/11 07:26:31;;;;;;;56.33;22.10;;;0.50;99.90;;;;;;5087112;28;20047;-79
2022/12/11 07:28:58;;;;;;;58.22;22.23;;;0.50;99.90;;;;;;5080988;28;20044;-79
2022/12/11 07:31:28;;;;;;;59.28;22.20;;;0.50;99.90;;;;;;5081166;28;20040;-79
2022/12/11 07:33:56;;;;;;;57.17;22.27;;;0.60;99.90;;;;;;5066451;28;20036;-80
2022/12/11 07:36:22;;;;;;;53.53;20.60;;;0.60;99.90;;;;;;5066897;28;20058;-79
2022/12/11 07:38:48;;;;;;;51.42;20.98;;;0.60;99.90;;;;;;5049499;28;20035;-80
2022/12/11 07:41:16;;;;;;;51.47;20.58;;;0.50;99.90;;;;;;5083523;28;20057;-79
2022/12/11 07:43:42;;;;;;;56.53;19.75;;;0.60;99.90;;;;;;5081098;28;20727;-79
2022/12/11 07:46:12;;;;;;;49.63;20.42;;;0.60;99.90;;;;;;5080304;28;20096;-79
2022/12/11 07:48:39;;;;;;;53.75;20.85;;;0.60;99.90;;;;;;5059600;28;20093;-79
2022/12/11 07:51:26;;;;;;;50.23;19.93;;;0.60;99.90;;;;;;5082030;28;20065;-79
2022/12/11 07:53:57;;;;;;;58.63;20.67;;;0.60;99.90;;;;;;5065138;28;20044;-79
2022/12/11 07:56:22;;;;;;;54.25;21.98;;;0.60;99.90;;;;;;5069825;28;20044;-80
2022/12/11 07:58:49;;;;;;;59.92;20.55;;;0.60;99.90;;;;;;5088551;28;20131;-80
2022/12/11 08:01:23;;;;;;;50.70;20.83;;;0.60;99.90;;;;;;5069749;28;20044;-80
2022/12/11 08:03:49;;;;;;;56.63;20.98;;;;;;;;;;5069554;28;20036;-80
2022/12/11 08:06:16;;;;;;;61.08;22.67;;;0.60;99.90;;;;;;5087185;28;20044;-80
2022/12/11 08:08:41;;;;;;;56.47;21.67;;;0.70;99.90;;;;;;5087709;28;20033;-79
2022/12/11 08:11:10;;;;;;;59.10;22.38;;;0.70;99.90;;;;;;5085031;28;20032;-79
2022/12/11 08:13:36;;;;;;;60.70;26.38;;;0.70;99.90;;;;;;5089762;28;20051;-79
2022/12/11 08:16:06;;;;;;;61.40;24.13;;;0.70;99.90;;;;;;5083903;28;20044;-79
2022/12/11 08:18:33;;;;;;;57.15;21.50;;;0.60;99.90;;;;;;5062345;28;20067;-79
2022/12/11 08:21:05;;;;;;;60.63;21.83;;;0.60;99.90;;;;;;5080078;28;20478;-80
2022/12/11 08:23:33;;;;;;;49.67;21.83;;;0.70;99.90;;;;;;5079513;28;20544;-80
2022/12/11 08:26:02;;;;;;;51.90;21.88;;;0.60;99.90;;;;;;5083534;28;20040;-79
2022/12/11 08:28:28;;;;;;;55.10;22.70;;;0.70;99.90;;;;;;5058500;28;20047;-80
2022/12/11 08:30:53;;;;;;;55.40;22.67;;;0.60;99.90;;;;;;5081827;28;20044;-79
2022/12/11 08:33:19;;;;;;;57.42;24.25;;;0.60;99.90;;;;;;5079195;28;20454;-79
2022/12/11 08:35:45;;;;;;;57.35;23.77;;;0.70;99.90;;;;;;5083994;28;20037;-80
2022/12/11 08:38:11;;;;;;;55.22;22.50;;;0.60;99.90;;;;;;5063544;28;20051;-79
2022/12/11 08:40:36;;;;;;;55.42;23.33;;;0.60;99.90;;;;;;5082647;28;21177;-79
2022/12/11 08:43:02;;;;;;;57.58;22.50;;;0.60;99.90;;;;;;5086739;28;20136;-79
2022/12/11 08:45:28;;;;;;;53.38;21.35;;;0.70;99.90;;;;;;5085044;28;20071;-79
2022/12/11 08:47:53;;;;;;;63.15;22.55;;;0.70;99.90;;;;;;5078705;28;20042;-79
2022/12/11 08:50:19;;;;;;;53.00;21.38;;;0.70;99.90;;;;;;5082376;28;20047;-79
2022/12/11 08:52:45;;;;;;;57.47;21.75;;;0.70;99.90;;;;;;5085208;28;20043;-79
2022/12/11 08:55:11;;;;;;;54.72;21.45;;;0.70;99.90;;;;;;5084207;28;20095;-79
2022/12/11 08:57:38;;;;;;;62.72;22.75;;;0.70;99.90;;;;;;5049823;28;20054;-80
2022/12/11 09:00:05;;;;;;;53.00;22.00;;;0.70;99.90;;;;;;5093267;28;20044;-81
2022/12/11 09:02:31;;;;;;;53.50;21.27;;;0.70;99.90;;;;;;5087283;28;20078;-79
2022/12/11 09:04:57;;;;;;;54.00;20.00;;;0.70;99.90;;;;;;5087846;28;20477;-78
2022/12/11 09:07:23;;;;;;;54.83;21.88;;;0.70;99.90;;;;;;5091724;28;20048;-77
2022/12/11 09:09:49;;;;;;;54.08;22.45;;;0.70;99.90;;;;;;5080385;28;20037;-76
2022/12/11 09:12:14;;;;;;;52.22;21.10;;;0.70;99.90;;;;;;5096468;28;20058;-79
2022/12/11 09:14:40;;;;;;;59.45;22.63;;;0.70;99.90;;;;;;5096412;28;20121;-78
2022/12/11 09:17:05;;;;;;;51.78;21.25;;;0.80;99.90;;;;;;5094732;28;20035;-79
2022/12/11 09:19:31;;;;;;;54.45;20.92;;;0.80;99.90;;;;;;5094829;28;20117;-79
2022/12/11 09:21:57;;;;;;;53.60;21.08;;;0.70;99.90;;;;;;5094969;28;20043;-78
2022/12/11 09:24:23;;;;;;;54.38;20.17;;;0.80;99.90;;;;;;5093486;28;20508;-76
2022/12/11 09:26:49;;;;;;;47.75;20.70;;;0.80;99.90;;;;;;5070478;28;20136;-77
2022/12/11 09:29:15;;;;;;;51.33;20.42;;;0.80;99.90;;;;;;5092568;28;20040;-78
2022/12/11 09:31:41;;;;;;;48.72;20.90;;;0.80;99.90;;;;;;5075760;28;20511;-75
2022/12/11 09:34:10;;;;;;;49.58;20.48;;;0.80;99.90;;;;;;5066231;28;20055;-79
2022/12/11 09:36:38;;;;;;;55.55;21.63;;;0.80;99.90;;;;;;5081838;28;20044;-78
2022/12/11 09:39:06;;;;;;;50.28;20.25;;;0.80;99.90;;;;;;5080811;28;20118;-77
2022/12/11 09:41:37;;;;;;;;;;;0.80;99.90;;;;;;5081440;28;20373;-80
2022/12/11 09:44:18;;;;;;;51.53;21.08;;;0.80;99.90;;;;;;5087333;28;20863;-79
2022/12/11 09:46:45;;;;;;;44.30;19.33;;;0.90;99.90;;;;;;5103331;28;20048;-79
2022/12/11 09:49:38;;;;;;;49.42;20.48;;;0.90;99.90;;;;;;5095122;28;20036;-79
2022/12/11 09:52:18;;;;;;;50.22;20.45;;;0.80;99.90;;;;;;5096092;28;20067;-79
2022/12/11 09:54:53;;;;;;;50.83;20.42;;;0.90;99.90;;;;;;5082793;28;20032;-79
2022/12/11 09:57:45;;;;;;;48.35;20.05;;;0.90;99.90;;;;;;5077155;28;22194;-79
2022/12/11 10:00:28;;;;;;;52.35;21.05;;;0.90;99.90;;;;;;5075504;28;20047;-79
2022/12/11 10:03:15;;;;;;;45.90;19.35;;;0.90;99.90;;;;;;5091528;28;20055;-79
2022/12/11 10:05:59;;;;;;;47.72;20.20;;;0.90;99.90;;;;;;5086345;28;20047;-80
2022/12/11 10:09:02;;;;;;;49.05;20.63;;;0.90;99.90;;;;;;5092410;28;20126;-79
2022/12/11 10:11:41;;;;;;;45.03;19.98;;;0.90;99.90;;;;;;5075326;28;20051;-79
2022/12/11 10:14:25;;;;;;;53.03;22.35;;;0.90;99.90;;;;;;5101518;28;20040;-80
2022/12/11 10:16:58;;;;;;;49.38;19.48;;;0.90;99.90;;;;;;5071055;28;20071;-80
2022/12/11 10:19:28;;;;;;;43.42;18.52;;;0.90;99.90;;;;;;5101964;28;20119;-80
2022/12/11 10:21:56;;;;;;;43.53;19.77;;;0.90;99.90;;;;;;5096155;28;20370;-79
2022/12/11 10:24:26;;;;;;;45.55;20.40;;;0.90;99.90;;;;;;5093561;28;20126;-80
2022/12/11 10:26:58;;;;;;;52.13;22.10;;;1.00;99.90;;;;;;5064601;28;20069;-79
2022/12/11 10:29:24;;;;;;;50.92;22.27;;;1.00;99.90;;;;;;5077949;28;20044;-80
2022/12/11 10:31:55;;;;;;;49.83;21.70;;;1.00;99.90;;;;;;5097198;28;20044;-80
2022/12/11 10:34:33;;;;;;;57.72;26.15;;;1.00;99.90;;;;;;5094148;28;20619;-80
2022/12/11 10:37:00;;;;;;;51.95;22.35;;;1.00;99.90;;;;;;5093747;28;20039;-79
2022/12/11 10:39:26;;;;;;;60.28;26.45;;;1.00;99.90;;;;;;5097178;28;20040;-79
2022/12/11 10:41:54;;;;;;;69.95;30.67;;;1.00;99.90;;;;;;5068774;28;20044;-80
2022/12/11 10:44:30;;;;;;;70.55;33.03;;;1.00;99.90;;;;;;5074580;28;20052;-80
2022/12/11 10:47:13;;;;;;;62.35;27.33;;;1.10;99.90;;;;;;5089273;28;20373;-78
2022/12/11 10:49:50;;;;;;;65.43;25.98;;;1.00;99.90;;;;;;5093946;28;20101;-79
2022/12/11 10:52:30;;;;;;;49.40;20.70;;;1.00;99.90;;;;;;5096496;28;20481;-79
2022/12/11 10:55:03;;;;;;;45.33;20.20;;;1.10;99.90;;;;;;5062026;28;20147;-80
2022/12/11 10:57:34;;;;;;;49.13;19.58;;;1.10;99.90;;;;;;5095403;28;20040;-80
2022/12/11 11:00:03;;;;;;;49.95;20.90;;;1.10;99.90;;;;;;5093345;28;20090;-79
2022/12/11 11:02:34;;;;;;;48.67;22.13;;;1.10;99.90;;;;;;5075911;28;20120;-80
2022/12/11 11:05:11;;;;;;;52.25;22.65;;;1.00;99.90;;;;;;5099012;28;20415;-79
2022/12/11 11:07:37;;;;;;;49.95;20.85;;;1.10;99.90;;;;;;5098849;28;20107;-80
2022/12/11 11:10:14;;;;;;;48.33;21.83;;;1.10;99.90;;;;;;5083305;28;20067;-79
2022/12/11 11:12:44;;;;;;;48.67;20.80;;;1.10;99.90;;;;;;5092280;28;20184;-80
2022/12/11 11:15:28;;;;;;;47.05;21.55;;;1.10;99.90;;;;;;5074980;28;20052;-80
2022/12/11 11:17:56;;;;;;;52.58;23.35;;;1.20;99.90;;;;;;5075220;28;20044;-80
2022/12/11 11:20:27;;;;;;;45.72;20.67;;;1.10;99.90;;;;;;5089123;28;20092;-79
2022/12/11 11:22:56;;;;;;;49.95;21.25;;;1.10;99.90;;;;;;5090823;28;20084;-80
2022/12/11 11:25:24;;;;;;;55.38;22.88;;;1.10;99.90;;;;;;5108897;28;20048;-80
2022/12/11 11:28:05;;;;;;;50.88;21.25;;;1.10;99.90;;;;;;5075971;28;20129;-80
2022/12/11 11:30:35;;;;;;;49.60;22.25;;;1.10;99.90;;;;;;5094054;28;20036;-80
2022/12/11 11:33:21;;;;;;;49.53;22.05;;;1.10;99.90;;;;;;5078474;28;20067;-80
2022/12/11 11:35:53;;;;;;;47.38;20.52;;;1.10;99.90;;;;;;5096755;28;20146;-80
2022/12/11 11:38:23;;;;;;;42.90;20.35;;;1.20;99.90;;;;;;5067894;28;20055;-80
2022/12/11 11:40:58;;;;;;;47.03;20.67;;;1.20;99.90;;;;;;5071224;28;20044;-80
2022/12/11 11:43:49;;;;;;;50.10;20.85;;;1.20;99.90;;;;;;5093999;28;20032;-79
2022/12/11 11:46:52;;;;;;;52.17;21.77;;;1.20;99.90;;;;;;5087934;28;20047;-80
2022/12/11 11:49:38;;;;;;;51.33;20.80;;;1.20;99.90;;;;;;5039869;28;20056;-80
2022/12/11 11:52:28;;;;;;;53.28;22.15;;;1.20;99.90;;;;;;5091465;28;20504;-80
2022/12/11 11:55:07;;;;;;;47.50;20.10;;;1.20;99.90;;;;;;5089918;28;20044;-79
2022/12/11 11:57:41;;;;;;;49.05;21.38;;;1.20;99.90;;;;;;5090088;28;20048;-79
2022/12/11 12:00:28;;;;;;;50.65;22.42;;;1.20;99.90;;;;;;5093353;28;20043;-80
2022/12/11 12:02:59;;;;;;;52.73;21.77;;;1.20;99.90;;;;;;5074293;28;20052;-79
2022/12/11 12:06:06;;;;;;;54.45;23.27;;;1.20;99.90;;;;;;5063265;28;20374;-80
2022/12/11 12:08:45;;;;;;;48.08;21.70;;;1.20;99.90;;;;;;5092303;28;20453;-77
2022/12/11 12:11:29;;;;;;;45.58;21.30;;;1.30;99.90;;;;;;5090009;28;20508;-78
2022/12/11 12:14:04;;;;;;;47.38;21.08;;;1.20;99.90;;;;;;5089039;28;20048;-78
2022/12/11 12:16:41;;;;;;;55.92;23.02;;;1.20;99.90;;;;;;5071150;28;20067;-77
2022/12/11 12:19:38;;;;;;;47.13;21.30;;;1.20;99.90;;;;;;5094361;28;20040;-78
2022/12/11 12:22:24;;;;;;;50.27;22.80;;;1.20;99.90;;;;;;5074170;28;20054;-76
2022/12/11 12:25:14;;;;;;;49.88;22.75;;;1.20;99.90;;;;;;5068377;28;20040;-78
2022/12/11 12:27:52;;;;;;;50.38;22.58;;;1.20;99.90;;;;;;5052074;28;20052;-78
2022/12/11 12:30:18;;;;;;;51.75;22.15;;;1.20;99.90;;;;;;5071473;28;20048;-77
2022/12/11 12:33:22;;;;;;;47.88;22.35;;;1.20;99.90;;;;;;5090300;28;20481;-78
2022/12/11 12:35:52;;;;;;;50.72;23.02;;;1.30;99.90;;;;;;5093597;28;20404;-79
2022/12/11 12:38:28;;;;;;;55.92;22.88;;;1.20;99.90;;;;;;5096116;28;20533;-79
2022/12/11 12:41:03;;;;;;;50.72;22.17;;;1.20;99.90;;;;;;5069051;28;20435;-79
2022/12/11 12:43:59;;;;;;;46.65;21.80;;;1.20;99.90;;;;;;5102040;28;20066;-79
2022/12/11 12:46:56;;;;;;;48.45;23.48;;;1.20;99.90;;;;;;5078112;28;20410;-80
2022/12/11 12:49:30;;;;;;;50.47;21.70;;;1.20;99.90;;;;;;5099590;28;20048;-80
2022/12/11 12:51:56;;;;;;;55.03;24.17;;;1.20;99.90;;;;;;5101191;28;20436;-79
2022/12/11 12:54:25;;;;;;;50.80;22.25;;;1.20;99.90;;;;;;5100014;28;20485;-80
2022/12/11 12:56:51;;;;;;;48.85;22.05;;;1.20;99.90;;;;;;5076505;28;20036;-79
2022/12/11 12:59:21;;;;;;;47.63;21.77;;;1.20;99.90;;;;;;5099848;28;20048;-80
2022/12/11 13:01:51;;;;;;;44.58;21.42;;;1.20;99.90;;;;;;5098573;28;20044;-79
2022/12/11 13:04:40;;;;;;;47.58;22.02;;;1.20;99.90;;;;;;5079376;28;20054;-80
2022/12/11 13:07:31;;;;;;;45.03;20.90;;;1.20;99.90;;;;;;5097705;28;20040;-79
2022/12/11 13:10:23;;;;;;;40.72;20.08;;;1.20;99.90;;;;;;5096170;28;20485;-79